sensor_id;sensor_type;location;lat;lon;timestamp;pressure;altitude;pressure_sealevel;temperature;humidity
43364;BME280;40636;52.424;-1.948;2023-01-05T00:00:49;99982.78;;;9.30;100.00
43364;BME280;40636;52.424;-1.948;2023-01-05T00:03:16;99999.84;;;9.32;100.00
43364;BME280;40636;52.424;-1.948;2023-01-05T00:05:43;100003.41;;;9.32;100.00
43364;BME280;40636;52.424;-1.948;2023-01-05T00:08:10;100000.16;;;9.35;100.00
43364;BME280;40636;52.424;-1.948;2023-01-05T00:10:36;100011.72;;;9.37;100.00
43364;BME280;40636;52.424;-1.948;2023-01-05T00:13:22;100012.09;;;9.41;100.00
43364;BME280;40636;52.424;-1.948;2023-01-05T00:16:13;100015.16;;;9.45;100.00
43364;BME280;40636;52.424;-1.948;2023-01-05T00:18:59;100026.47;;;9.48;100.00
43364;BME280;40636;52.424;-1.948;2023-01-05T00:21:44;100028.97;;;9.50;100.00
43364;BME280;40636;52.424;-1.948;2023-01-05T00:24:30;100033.84;;;9.48;100.00
43364;BME280;40636;52.424;-1.948;2023-01-05T00:26:57;100046.47;;;9.49;100.00
43364;BME280;40636;52.424;-1.948;2023-01-05T00:29:24;100038.03;;;9.50;100.00
43364;BME280;40636;52.424;-1.948;2023-01-05T00:31:50;100039.44;;;9.53;100.00
43364;BME280;40636;52.424;-1.948;2023-01-05T00:34:17;100034.78;;;9.53;100.00
43364;BME280;40636;52.424;-1.948;2023-01-05T00:36:44;100039.22;;;9.54;100.00
43364;BME280;40636;52.424;-1.948;2023-01-05T00:39:10;100028.25;;;9.54;100.00
43364;BME280;40636;52.424;-1.948;2023-01-05T00:41:37;100033.22;;;9.57;100.00
43364;BME280;40636;52.424;-1.948;2023-01-05T00:44:04;100035.75;;;9.59;100.00
43364;BME280;40636;52.424;-1.948;2023-01-05T00:46:30;100035.97;;;9.57;100.00
43364;BME280;40636;52.424;-1.948;2023-01-05T00:48:57;100049.19;;;9.60;100.00
43364;BME280;40636;52.424;-1.948;2023-01-05T00:51:24;100042.53;;;9.56;100.00
43364;BME280;40636;52.424;-1.948;2023-01-05T00:53:50;100040.41;;;9.58;100.00
43364;BME280;40636;52.424;-1.948;2023-01-05T00:56:17;100037.06;;;9.56;100.00
43364;BME280;40636;52.424;-1.948;2023-01-05T00:58:44;100047.78;;;9.46;100.00
43364;BME280;40636;52.424;-1.948;2023-01-05T01:01:11;100048.28;;;9.43;100.00
43364;BME280;40636;52.424;-1.948;2023-01-05T01:03:38;100041.50;;;9.34;100.00
43364;BME280;40636;52.424;-1.948;2023-01-05T01:06:05;100056.38;;;9.26;100.00
43364;BME280;40636;52.424;-1.948;2023-01-05T01:08:32;100056.50;;;9.20;100.00
43364;BME280;40636;52.424;-1.948;2023-01-05T01:11:03;100044.25;;;9.10;100.00
43364;BME280;40636;52.424;-1.948;2023-01-05T01:13:30;100052.00;;;9.13;100.00
43364;BME280;40636;52.424;-1.948;2023-01-05T01:15:57;100061.75;;;9.09;100.00
43364;BME280;40636;52.424;-1.948;2023-01-05T01:18:30;100057.38;;;9.08;100.00
43364;BME280;40636;52.424;-1.948;2023-01-05T01:20:57;100066.63;;;9.07;100.00
43364;BME280;40636;52.424;-1.948;2023-01-05T01:23:24;100067.34;;;9.03;100.00
43364;BME280;40636;52.424;-1.948;2023-01-05T01:25:50;100064.59;;;9.03;100.00
43364;BME280;40636;52.424;-1.948;2023-01-05T01:28:17;100077.34;;;8.97;100.00
43364;BME280;40636;52.424;-1.948;2023-01-05T01:30:44;100070.19;;;8.96;100.00
43364;BME280;40636;52.424;-1.948;2023-01-05T01:33:11;100072.00;;;8.91;100.00
43364;BME280;40636;52.424;-1.948;2023-01-05T01:35:38;100067.81;;;8.88;100.00
43364;BME280;40636;52.424;-1.948;2023-01-05T01:38:04;100069.97;;;8.86;100.00
43364;BME280;40636;52.424;-1.948;2023-01-05T01:40:42;100066.16;;;8.87;100.00
43364;BME280;40636;52.424;-1.948;2023-01-05T01:43:18;100073.53;;;8.86;100.00
43364;BME280;40636;52.424;-1.948;2023-01-05T01:45:45;100078.38;;;8.84;100.00
43364;BME280;40636;52.424;-1.948;2023-01-05T01:48:15;100078.88;;;8.81;100.00
43364;BME280;40636;52.424;-1.948;2023-01-05T01:50:47;100094.44;;;8.81;100.00
43364;BME280;40636;52.424;-1.948;2023-01-05T01:53:25;100082.19;;;8.83;100.00
43364;BME280;40636;52.424;-1.948;2023-01-05T01:55:53;100099.00;;;8.87;100.00
43364;BME280;40636;52.424;-1.948;2023-01-05T01:58:23;100104.47;;;8.87;100.00
43364;BME280;40636;52.424;-1.948;2023-01-05T02:00:51;100104.22;;;8.88;100.00
43364;BME280;40636;52.424;-1.948;2023-01-05T02:03:18;100106.25;;;8.93;100.00
43364;BME280;40636;52.424;-1.948;2023-01-05T02:05:45;100092.09;;;8.96;100.00
43364;BME280;40636;52.424;-1.948;2023-01-05T02:08:14;100104.72;;;8.97;100.00
43364;BME280;40636;52.424;-1.948;2023-01-05T02:16:00;100115.66;;;8.97;100.00
43364;BME280;40636;52.424;-1.948;2023-01-05T02:36:14;100119.56;;;8.78;100.00
43364;BME280;40636;52.424;-1.948;2023-01-05T02:39:02;100127.75;;;8.78;100.00
43364;BME280;40636;52.424;-1.948;2023-01-05T02:41:40;100130.50;;;8.78;100.00
43364;BME280;40636;52.424;-1.948;2023-01-05T02:44:15;100121.09;;;8.74;100.00
43364;BME280;40636;52.424;-1.948;2023-01-05T02:46:42;100135.00;;;8.72;100.00
43364;BME280;40636;52.424;-1.948;2023-01-05T02:49:09;100132.50;;;8.71;100.00
43364;BME280;40636;52.424;-1.948;2023-01-05T02:51:41;100130.84;;;8.70;100.00
43364;BME280;40636;52.424;-1.948;2023-01-05T02:54:15;100135.94;;;8.66;100.00
43364;BME280;40636;52.424;-1.948;2023-01-05T02:56:55;100136.75;;;8.67;100.00
43364;BME280;40636;52.424;-1.948;2023-01-05T02:59:31;100133.81;;;8.68;100.00
43364;BME280;40636;52.424;-1.948;2023-01-05T03:02:05;100140.31;;;8.67;100.00
43364;BME280;40636;52.424;-1.948;2023-01-05T03:04:44;100146.41;;;8.69;100.00
43364;BME280;40636;52.424;-1.948;2023-01-05T03:07:15;100145.59;;;8.69;100.00
43364;BME280;40636;52.424;-1.948;2023-01-05T03:09:43;100152.72;;;8.70;100.00
43364;BME280;40636;52.424;-1.948;2023-01-05T03:12:19;100151.28;;;8.67;100.00
43364;BME280;40636;52.424;-1.948;2023-01-05T03:17:41;100149.41;;;8.68;100.00
43364;BME280;40636;52.424;-1.948;2023-01-05T03:20:12;100153.19;;;8.67;100.00
43364;BME280;40636;52.424;-1.948;2023-01-05T03:22:42;100158.31;;;8.63;100.00
43364;BME280;40636;52.424;-1.948;2023-01-05T03:25:29;100156.25;;;8.58;100.00
43364;BME280;40636;52.424;-1.948;2023-01-05T03:28:20;100144.69;;;8.56;100.00
43364;BME280;40636;52.424;-1.948;2023-01-05T03:34:18;100148.84;;;8.47;100.00
43364;BME280;40636;52.424;-1.948;2023-01-05T03:37:14;100146.34;;;8.46;100.00
43364;BME280;40636;52.424;-1.948;2023-01-05T03:39:44;100138.59;;;8.43;100.00
43364;BME280;40636;52.424;-1.948;2023-01-05T03:42:13;100138.59;;;8.43;100.00
43364;BME280;40636;52.424;-1.948;2023-01-05T03:44:43;100135.25;;;8.41;100.00
43364;BME280;40636;52.424;-1.948;2023-01-05T03:47:11;100134.88;;;8.37;100.00
43364;BME280;40636;52.424;-1.948;2023-01-05T03:49:38;100136.78;;;8.36;100.00
43364;BME280;40636;52.424;-1.948;2023-01-05T03:52:04;100121.63;;;8.34;100.00
43364;BME280;40636;52.424;-1.948;2023-01-05T03:54:31;100125.44;;;8.33;100.00
43364;BME280;40636;52.424;-1.948;2023-01-05T03:56:58;100124.09;;;8.24;100.00
43364;BME280;40636;52.424;-1.948;2023-01-05T03:59:25;100114.09;;;8.18;100.00
43364;BME280;40636;52.424;-1.948;2023-01-05T04:01:52;100118.34;;;8.13;100.00
43364;BME280;40636;52.424;-1.948;2023-01-05T04:04:19;100121.53;;;8.10;100.00
43364;BME280;40636;52.424;-1.948;2023-01-05T04:06:45;100122.00;;;8.07;100.00
43364;BME280;40636;52.424;-1.948;2023-01-05T04:09:12;100125.34;;;8.09;100.00
43364;BME280;40636;52.424;-1.948;2023-01-05T04:11:39;100134.38;;;8.10;100.00
43364;BME280;40636;52.424;-1.948;2023-01-05T04:14:05;100123.44;;;8.10;100.00
43364;BME280;40636;52.424;-1.948;2023-01-05T04:16:32;100125.72;;;8.13;100.00
43364;BME280;40636;52.424;-1.948;2023-01-05T04:18:59;100132.03;;;8.13;100.00
43364;BME280;40636;52.424;-1.948;2023-01-05T04:21:25;100129.88;;;8.16;100.00
43364;BME280;40636;52.424;-1.948;2023-01-05T04:23:52;100137.50;;;8.13;100.00
43364;BME280;40636;52.424;-1.948;2023-01-05T04:26:19;100129.97;;;8.09;100.00
43364;BME280;40636;52.424;-1.948;2023-01-05T04:28:45;100134.00;;;8.06;100.00
43364;BME280;40636;52.424;-1.948;2023-01-05T04:31:12;100139.47;;;8.06;100.00
43364;BME280;40636;52.424;-1.948;2023-01-05T04:33:39;100138.38;;;8.07;100.00
43364;BME280;40636;52.424;-1.948;2023-01-05T04:36:06;100137.56;;;8.07;100.00
43364;BME280;40636;52.424;-1.948;2023-01-05T04:38:33;100136.72;;;8.06;100.00
43364;BME280;40636;52.424;-1.948;2023-01-05T04:40:59;100130.03;;;8.02;100.00
43364;BME280;40636;52.424;-1.948;2023-01-05T04:43:26;100136.59;;;8.01;100.00
43364;BME280;40636;52.424;-1.948;2023-01-05T04:45:53;100130.50;;;7.99;100.00
43364;BME280;40636;52.424;-1.948;2023-01-05T04:48:19;100135.38;;;7.97;100.00
43364;BME280;40636;52.424;-1.948;2023-01-05T04:50:53;100142.28;;;8.00;100.00
43364;BME280;40636;52.424;-1.948;2023-01-05T04:53:21;100131.56;;;7.98;100.00
43364;BME280;40636;52.424;-1.948;2023-01-05T04:55:49;100140.25;;;7.95;100.00
43364;BME280;40636;52.424;-1.948;2023-01-05T04:58:17;100138.53;;;7.94;100.00
43364;BME280;40636;52.424;-1.948;2023-01-05T05:00:44;100142.97;;;7.95;100.00
43364;BME280;40636;52.424;-1.948;2023-01-05T05:03:10;100141.28;;;7.94;100.00
43364;BME280;40636;52.424;-1.948;2023-01-05T05:05:37;100136.66;;;7.95;100.00
43364;BME280;40636;52.424;-1.948;2023-01-05T05:08:04;100136.50;;;7.89;100.00
43364;BME280;40636;52.424;-1.948;2023-01-05T05:10:31;100130.69;;;7.86;100.00
43364;BME280;40636;52.424;-1.948;2023-01-05T05:12:58;100136.16;;;7.86;100.00
43364;BME280;40636;52.424;-1.948;2023-01-05T05:15:25;100134.47;;;7.85;100.00
43364;BME280;40636;52.424;-1.948;2023-01-05T05:17:52;100126.94;;;7.80;100.00
43364;BME280;40636;52.424;-1.948;2023-01-05T05:20:18;100126.94;;;7.80;100.00
43364;BME280;40636;52.424;-1.948;2023-01-05T05:22:45;100132.41;;;7.80;100.00
43364;BME280;40636;52.424;-1.948;2023-01-05T05:25:12;100133.72;;;7.78;100.00
43364;BME280;40636;52.424;-1.948;2023-01-05T05:27:38;100136.97;;;7.68;100.00
43364;BME280;40636;52.424;-1.948;2023-01-05T05:30:06;100133.41;;;7.68;100.00
43364;BME280;40636;52.424;-1.948;2023-01-05T05:32:32;100132.19;;;7.63;100.00
43364;BME280;40636;52.424;-1.948;2023-01-05T05:35:06;100135.97;;;7.62;100.00
43364;BME280;40636;52.424;-1.948;2023-01-05T05:37:33;100142.94;;;7.58;100.00
43364;BME280;40636;52.424;-1.948;2023-01-05T05:39:59;100138.41;;;7.52;100.00
43364;BME280;40636;52.424;-1.948;2023-01-05T05:42:26;100140.97;;;7.47;100.00
43364;BME280;40636;52.424;-1.948;2023-01-05T05:44:53;100135.50;;;7.47;100.00
43364;BME280;40636;52.424;-1.948;2023-01-05T05:47:19;100133.91;;;7.40;100.00
43364;BME280;40636;52.424;-1.948;2023-01-05T05:49:46;100139.16;;;7.41;100.00
43364;BME280;40636;52.424;-1.948;2023-01-05T05:52:13;100140.38;;;7.45;100.00
43364;BME280;40636;52.424;-1.948;2023-01-05T05:54:39;100133.56;;;7.54;100.00
43364;BME280;40636;52.424;-1.948;2023-01-05T05:57:06;100130.81;;;7.54;100.00
43364;BME280;40636;52.424;-1.948;2023-01-05T05:59:33;100133.72;;;7.59;100.00
43364;BME280;40636;52.424;-1.948;2023-01-05T06:02:00;100138.50;;;7.64;100.00
43364;BME280;40636;52.424;-1.948;2023-01-05T06:04:27;100133.41;;;7.68;100.00
43364;BME280;40636;52.424;-1.948;2023-01-05T06:06:54;100130.00;;;7.72;100.00
43364;BME280;40636;52.424;-1.948;2023-01-05T06:09:20;100127.88;;;7.74;100.00
43364;BME280;40636;52.424;-1.948;2023-01-05T06:11:47;100127.03;;;7.74;100.00
43364;BME280;40636;52.424;-1.948;2023-01-05T06:14:14;100123.22;;;7.75;100.00
43364;BME280;40636;52.424;-1.948;2023-01-05T06:16:41;100123.22;;;7.75;100.00
43364;BME280;40636;52.424;-1.948;2023-01-05T06:19:08;100125.72;;;7.76;100.00
43364;BME280;40636;52.424;-1.948;2023-01-05T06:21:35;100121.97;;;7.77;100.00
43364;BME280;40636;52.424;-1.948;2023-01-05T06:24:02;100115.47;;;7.72;100.00
43364;BME280;40636;52.424;-1.948;2023-01-05T06:26:29;100116.56;;;7.71;100.00
43364;BME280;40636;52.424;-1.948;2023-01-05T06:28:55;100117.84;;;7.68;100.00
43364;BME280;40636;52.424;-1.948;2023-01-05T06:31:22;100115.72;;;7.70;100.00
43364;BME280;40636;52.424;-1.948;2023-01-05T06:33:49;100116.94;;;7.74;100.00
43364;BME280;40636;52.424;-1.948;2023-01-05T06:36:15;100112.31;;;7.75;100.00
43364;BME280;40636;52.424;-1.948;2023-01-05T06:38:42;100106.84;;;7.75;100.00
43364;BME280;40636;52.424;-1.948;2023-01-05T06:41:09;100115.66;;;7.77;100.00
43364;BME280;40636;52.424;-1.948;2023-01-05T06:43:36;100102.16;;;7.82;100.00
43364;BME280;40636;52.424;-1.948;2023-01-05T06:46:02;100094.53;;;7.84;100.00
43364;BME280;40636;52.424;-1.948;2023-01-05T06:48:29;100098.94;;;7.85;100.00
43364;BME280;40636;52.424;-1.948;2023-01-05T06:50:56;100101.22;;;7.88;100.00
43364;BME280;40636;52.424;-1.948;2023-01-05T06:53:23;100098.63;;;7.93;100.00
43364;BME280;40636;52.424;-1.948;2023-01-05T06:55:49;100101.50;;;7.98;100.00
43364;BME280;40636;52.424;-1.948;2023-01-05T06:58:16;100101.06;;;8.01;100.00
43364;BME280;40636;52.424;-1.948;2023-01-05T07:00:43;100100.59;;;8.04;100.00
43364;BME280;40636;52.424;-1.948;2023-01-05T07:03:12;100100.13;;;8.07;100.00
43364;BME280;40636;52.424;-1.948;2023-01-05T07:05:40;100099.44;;;8.12;100.00
43364;BME280;40636;52.424;-1.948;2023-01-05T07:08:07;100100.88;;;8.14;100.00
43364;BME280;40636;52.424;-1.948;2023-01-05T07:10:33;100108.00;;;8.16;100.00
43364;BME280;40636;52.424;-1.948;2023-01-05T07:13:00;100110.88;;;8.21;100.00
43364;BME280;40636;52.424;-1.948;2023-01-05T07:15:27;100108.78;;;8.23;100.00
43364;BME280;40636;52.424;-1.948;2023-01-05T07:17:54;100102.81;;;8.26;100.00
43364;BME280;40636;52.424;-1.948;2023-01-05T07:20:20;100099.03;;;8.27;100.00
43364;BME280;40636;52.424;-1.948;2023-01-05T07:22:47;100098.19;;;8.26;100.00
43364;BME280;40636;52.424;-1.948;2023-01-05T07:25:14;100095.81;;;8.30;100.00
43364;BME280;40636;52.424;-1.948;2023-01-05T07:27:40;100104.84;;;8.30;100.00
43364;BME280;40636;52.424;-1.948;2023-01-05T07:30:08;100097.28;;;8.32;100.00
43364;BME280;40636;52.424;-1.948;2023-01-05T07:32:35;100093.72;;;8.32;100.00
43364;BME280;40636;52.424;-1.948;2023-01-05T07:35:01;100088.00;;;8.33;100.00
43364;BME280;40636;52.424;-1.948;2023-01-05T07:37:28;100086.91;;;8.34;100.00
43364;BME280;40636;52.424;-1.948;2023-01-05T07:39:55;100077.88;;;8.34;100.00
43364;BME280;40636;52.424;-1.948;2023-01-05T07:42:22;100078.72;;;8.34;100.00
43364;BME280;40636;52.424;-1.948;2023-01-05T07:44:49;100079.56;;;8.35;100.00
43364;BME280;40636;52.424;-1.948;2023-01-05T07:47:17;100084.84;;;8.36;100.00
43364;BME280;40636;52.424;-1.948;2023-01-05T07:49:43;100082.44;;;8.40;100.00
43364;BME280;40636;52.424;-1.948;2023-01-05T07:52:11;100082.81;;;8.44;100.00
43364;BME280;40636;52.424;-1.948;2023-01-05T07:54:37;100085.81;;;8.42;100.00
43364;BME280;40636;52.424;-1.948;2023-01-05T07:57:04;100086.38;;;8.44;100.00
43364;BME280;40636;52.424;-1.948;2023-01-05T07:59:31;100088.66;;;8.47;100.00
43364;BME280;40636;52.424;-1.948;2023-01-05T08:01:58;100093.88;;;8.49;100.00
43364;BME280;40636;52.424;-1.948;2023-01-05T08:04:25;100087.38;;;8.50;100.00
43364;BME280;40636;52.424;-1.948;2023-01-05T08:06:52;100086.06;;;8.52;100.00
43364;BME280;40636;52.424;-1.948;2023-01-05T08:09:19;100093.19;;;8.53;100.00
43364;BME280;40636;52.424;-1.948;2023-01-05T08:12:04;100089.75;;;8.58;100.00
43364;BME280;40636;52.424;-1.948;2023-01-05T08:14:31;100090.00;;;8.56;100.00
43364;BME280;40636;52.424;-1.948;2023-01-05T08:16:58;100090.00;;;8.56;100.00
43364;BME280;40636;52.424;-1.948;2023-01-05T08:19:25;100077.97;;;8.57;100.00
43364;BME280;40636;52.424;-1.948;2023-01-05T08:21:52;100092.28;;;8.59;100.00
43364;BME280;40636;52.424;-1.948;2023-01-05T08:24:18;100094.75;;;8.61;100.00
43364;BME280;40636;52.424;-1.948;2023-01-05T08:26:48;100097.25;;;8.62;100.00
43364;BME280;40636;52.424;-1.948;2023-01-05T08:29:16;100091.78;;;8.62;100.00
43364;BME280;40636;52.424;-1.948;2023-01-05T08:31:46;100086.47;;;8.68;100.00
43364;BME280;40636;52.424;-1.948;2023-01-05T08:34:13;100088.97;;;8.69;100.00
43364;BME280;40636;52.424;-1.948;2023-01-05T08:36:40;100082.78;;;8.74;100.00
43364;BME280;40636;52.424;-1.948;2023-01-05T08:39:09;100088.84;;;8.76;100.00
43364;BME280;40636;52.424;-1.948;2023-01-05T08:41:38;100083.16;;;8.77;100.00
43364;BME280;40636;52.424;-1.948;2023-01-05T08:44:12;100084.56;;;8.80;100.00
43364;BME280;40636;52.424;-1.948;2023-01-05T08:46:39;100088.97;;;8.81;100.00
43364;BME280;40636;52.424;-1.948;2023-01-05T08:49:07;100080.53;;;8.82;100.00
43364;BME280;40636;52.424;-1.948;2023-01-05T08:51:35;100083.03;;;8.84;100.00
43364;BME280;40636;52.424;-1.948;2023-01-05T08:54:02;100080.91;;;8.86;100.00
43364;BME280;40636;52.424;-1.948;2023-01-05T08:56:28;100077.94;;;8.87;100.00
43364;BME280;40636;52.424;-1.948;2023-01-05T08:59:03;100082.06;;;8.90;100.00
43364;BME280;40636;52.424;-1.948;2023-01-05T09:01:30;100074.47;;;8.92;100.00
43364;BME280;40636;52.424;-1.948;2023-01-05T09:03:58;100080.53;;;8.94;100.00
43364;BME280;40636;52.424;-1.948;2023-01-05T09:06:27;100085.78;;;8.96;100.00
43364;BME280;40636;52.424;-1.948;2023-01-05T09:08:56;100080.06;;;8.97;100.00
43364;BME280;40636;52.424;-1.948;2023-01-05T09:11:25;100084.47;;;8.98;100.00
43364;BME280;40636;52.424;-1.948;2023-01-05T09:13:56;100084.25;;;9.00;100.00
43364;BME280;40636;52.424;-1.948;2023-01-05T09:16:27;100088.19;;;9.04;100.00
43364;BME280;40636;52.424;-1.948;2023-01-05T09:19:15;100089.34;;;9.08;100.00
43364;BME280;40636;52.424;-1.948;2023-01-05T09:21:44;100088.88;;;9.11;100.00
43364;BME280;40636;52.424;-1.948;2023-01-05T09:24:13;100086.50;;;9.14;100.00
43364;BME280;40636;52.424;-1.948;2023-01-05T09:26:41;100085.44;;;9.15;100.00
43364;BME280;40636;52.424;-1.948;2023-01-05T09:29:09;100081.16;;;9.20;100.00
43364;BME280;40636;52.424;-1.948;2023-01-05T09:31:36;100087.81;;;9.24;100.00
43364;BME280;40636;52.424;-1.948;2023-01-05T09:34:03;100080.56;;;9.29;100.00
43364;BME280;40636;52.424;-1.948;2023-01-05T09:36:30;100076.72;;;9.30;100.00
43364;BME280;40636;52.424;-1.948;2023-01-05T09:38:57;100078.19;;;9.33;100.00
43364;BME280;40636;52.424;-1.948;2023-01-05T09:41:29;100079.25;;;9.32;100.00
43364;BME280;40636;52.424;-1.948;2023-01-05T09:44:34;100075.53;;;9.38;100.00
43364;BME280;40636;52.424;-1.948;2023-01-05T09:47:28;100074.47;;;9.39;100.00
43364;BME280;40636;52.424;-1.948;2023-01-05T09:49:53;100078.41;;;9.43;100.00
43364;BME280;40636;52.424;-1.948;2023-01-05T09:52:21;100065.78;;;9.42;100.00
43364;BME280;40636;52.424;-1.948;2023-01-05T09:54:48;100067.19;;;9.45;100.00
43364;BME280;40636;52.424;-1.948;2023-01-05T09:57:19;100069.34;;;9.43;100.00
43364;BME280;40636;52.424;-1.948;2023-01-05T09:59:52;100068.06;;;9.45;100.00
43364;BME280;40636;52.424;-1.948;2023-01-05T10:02:26;100069.22;;;9.49;100.00
43364;BME280;40636;52.424;-1.948;2023-01-05T10:04:55;100063.25;;;9.52;100.00
43364;BME280;40636;52.424;-1.948;2023-01-05T10:07:31;100066.47;;;9.49;100.00
43364;BME280;40636;52.424;-1.948;2023-01-05T10:10:05;100070.91;;;9.50;100.00
43364;BME280;40636;52.424;-1.948;2023-01-05T10:12:47;100066.09;;;9.57;100.00
43364;BME280;40636;52.424;-1.948;2023-01-05T10:15:47;100070.63;;;9.63;100.00
43364;BME280;40636;52.424;-1.948;2023-01-05T10:18:18;100064.66;;;9.66;100.00
43364;BME280;40636;52.424;-1.948;2023-01-05T10:20:56;100070.75;;;9.69;100.00
43364;BME280;40636;52.424;-1.948;2023-01-05T10:23:44;100082.63;;;9.74;100.00
43364;BME280;40636;52.424;-1.948;2023-01-05T10:29:43;100080.59;;;9.81;100.00
43364;BME280;40636;52.424;-1.948;2023-01-05T10:32:28;100090.59;;;9.87;100.00
43364;BME280;40636;52.424;-1.948;2023-01-05T10:41:16;100087.22;;;9.97;100.00
43364;BME280;40636;52.424;-1.948;2023-01-05T10:46:16;100078.13;;;10.08;100.00
43364;BME280;40636;52.424;-1.948;2023-01-05T10:49:05;100086.22;;;10.15;100.00
43364;BME280;40636;52.424;-1.948;2023-01-05T10:51:33;100084.91;;;10.18;100.00
43364;BME280;40636;52.424;-1.948;2023-01-05T10:54:01;100069.03;;;10.20;100.00
43364;BME280;40636;52.424;-1.948;2023-01-05T10:56:28;100078.19;;;10.25;100.00
43364;BME280;40636;52.424;-1.948;2023-01-05T10:59:12;100072.50;;;10.27;100.00
43364;BME280;40636;52.424;-1.948;2023-01-05T11:01:42;100073.16;;;10.34;100.00
43364;BME280;40636;52.424;-1.948;2023-01-05T11:04:23;100068.28;;;10.36;100.00
43364;BME280;40636;52.424;-1.948;2023-01-05T11:07:04;100066.94;;;10.38;100.00
43364;BME280;40636;52.424;-1.948;2023-01-05T11:09:31;100061.78;;;10.42;100.00
43364;BME280;40636;52.424;-1.948;2023-01-05T11:12:00;100062.34;;;10.44;100.00
43364;BME280;40636;52.424;-1.948;2023-01-05T11:14:30;100057.00;;;10.49;100.00
43364;BME280;40636;52.424;-1.948;2023-01-05T11:17:02;100055.38;;;10.53;100.00
43364;BME280;40636;52.424;-1.948;2023-01-05T11:19:36;100057.91;;;10.55;100.00
43364;BME280;40636;52.424;-1.948;2023-01-05T11:22:29;100050.84;;;10.59;100.00
43364;BME280;40636;52.424;-1.948;2023-01-05T11:25:16;100060.13;;;10.58;100.00
43364;BME280;40636;52.424;-1.948;2023-01-05T11:27:44;100052.00;;;10.63;100.00
43364;BME280;40636;52.424;-1.948;2023-01-05T11:30:20;100050.19;;;10.69;100.00
43364;BME280;40636;52.424;-1.948;2023-01-05T11:32:50;100042.03;;;10.74;100.00
43364;BME280;40636;52.424;-1.948;2023-01-05T11:35:27;100031.88;;;10.74;100.00
43364;BME280;40636;52.424;-1.948;2023-01-05T11:37:56;100024.06;;;10.83;100.00
43364;BME280;40636;52.424;-1.948;2023-01-05T11:40:28;100034.28;;;10.87;100.00
43364;BME280;40636;52.424;-1.948;2023-01-05T11:42:55;100026.13;;;10.92;100.00
43364;BME280;40636;52.424;-1.948;2023-01-05T11:45:24;100024.34;;;11.03;100.00
43364;BME280;40636;52.424;-1.948;2023-01-05T11:47:55;100024.19;;;11.10;100.00
43364;BME280;40636;52.424;-1.948;2023-01-05T11:50:49;100022.94;;;11.17;100.00
43364;BME280;40636;52.424;-1.948;2023-01-05T11:53:25;100020.75;;;11.20;100.00
43364;BME280;40636;52.424;-1.948;2023-01-05T11:56:16;100019.19;;;11.24;100.00
43364;BME280;40636;52.424;-1.948;2023-01-05T11:58:45;100006.84;;;11.26;100.00
43364;BME280;40636;52.424;-1.948;2023-01-05T12:07:10;99996.88;;;11.20;100.00
43364;BME280;40636;52.424;-1.948;2023-01-05T12:12:25;99989.31;;;11.10;100.00
43364;BME280;40636;52.424;-1.948;2023-01-05T12:25:55;99968.03;;;11.01;100.00
43364;BME280;40636;52.424;-1.948;2023-01-05T12:40:06;99949.09;;;10.99;100.00
43364;BME280;40636;52.424;-1.948;2023-01-05T12:50:53;99933.13;;;11.18;100.00
43364;BME280;40636;52.424;-1.948;2023-01-05T12:56:00;99921.88;;;11.20;100.00
43364;BME280;40636;52.424;-1.948;2023-01-05T12:58:32;99926.09;;;11.27;100.00
43364;BME280;40636;52.424;-1.948;2023-01-05T13:01:01;99924.75;;;11.30;100.00
43364;BME280;40636;52.424;-1.948;2023-01-05T13:03:37;99923.41;;;11.32;100.00
43364;BME280;40636;52.424;-1.948;2023-01-05T13:06:12;99930.06;;;11.36;100.00
43364;BME280;40636;52.424;-1.948;2023-01-05T13:08:45;99919.41;;;11.40;100.00
43364;BME280;40636;52.424;-1.948;2023-01-05T13:13:47;99918.75;;;11.33;100.00
43364;BME280;40636;52.424;-1.948;2023-01-05T13:16:23;99928.16;;;11.37;100.00
43364;BME280;40636;52.424;-1.948;2023-01-05T13:19:01;99914.41;;;11.37;100.00
43364;BME280;40636;52.424;-1.948;2023-01-05T13:21:28;99918.53;;;11.39;100.00
43364;BME280;40636;52.424;-1.948;2023-01-05T13:24:04;99914.41;;;11.37;100.00
43364;BME280;40636;52.424;-1.948;2023-01-05T13:26:35;99909.75;;;11.37;100.00
43364;BME280;40636;52.424;-1.948;2023-01-05T13:29:04;99914.72;;;11.40;100.00
43364;BME280;40636;52.424;-1.948;2023-01-05T13:38:09;99902.81;;;11.35;100.00
43364;BME280;40636;52.424;-1.948;2023-01-05T13:48:49;99887.75;;;11.37;100.00
43364;BME280;40636;52.424;-1.948;2023-01-05T13:54:35;99884.63;;;11.29;100.00
43364;BME280;40636;52.424;-1.948;2023-01-05T13:57:22;99870.25;;;11.22;100.00
43364;BME280;40636;52.424;-1.948;2023-01-05T13:59:52;99870.25;;;11.22;100.00
43364;BME280;40636;52.424;-1.948;2023-01-05T14:02:36;99876.34;;;11.24;100.00
43364;BME280;40636;52.424;-1.948;2023-01-05T14:05:28;99871.28;;;11.15;100.00
43364;BME280;40636;52.424;-1.948;2023-01-05T14:07:57;99868.22;;;11.12;100.00
43364;BME280;40636;52.424;-1.948;2023-01-05T14:10:29;99870.66;;;11.08;100.00
43364;BME280;40636;52.424;-1.948;2023-01-05T14:12:56;99866.13;;;10.97;100.00
43364;BME280;40636;52.424;-1.948;2023-01-05T14:15:38;99868.31;;;10.95;100.00
43364;BME280;40636;52.424;-1.948;2023-01-05T14:18:10;99856.28;;;11.01;100.00
43364;BME280;40636;52.424;-1.948;2023-01-05T14:20:48;99852.72;;;11.01;100.00
43364;BME280;40636;52.424;-1.948;2023-01-05T14:25:51;99853.28;;;11.03;100.00
43364;BME280;40636;52.424;-1.948;2023-01-05T14:28:19;99841.47;;;11.02;100.00
43364;BME280;40636;52.424;-1.948;2023-01-05T14:30:50;99832.13;;;11.03;100.00
43364;BME280;40636;52.424;-1.948;2023-01-05T14:33:18;99836.56;;;11.04;100.00
43364;BME280;40636;52.424;-1.948;2023-01-05T14:35:46;99821.81;;;10.88;100.00
43364;BME280;40636;52.424;-1.948;2023-01-05T14:40:42;99819.81;;;10.84;100.00
43364;BME280;40636;52.424;-1.948;2023-01-05T14:43:23;99815.75;;;10.86;100.00